NORTHEAST SUFFOLK  -  Freeze Watch Freeze Watch        NORTHWEST SUFFOLK  -  Freeze Watch Freeze Watch        SOUTHEAST SUFFOLK  -  Freeze Watch Freeze Watch        SOUTHWEST SUFFOLK  -  Freeze Watch Freeze Watch      

Active alerts

Northwest Suffolk
  Details for Northwest Suffolk Freeze Watch
Southwest Suffolk
  Details for Southwest Suffolk Freeze Watch
Northeast Suffolk
  Details for Northeast Suffolk Freeze Watch
Southeast Suffolk
  Details for Southeast Suffolk Freeze Watch


WXM80 ListenWXM80 Stop

You find our weather info also at:

UK Metoffice

WeatherCloud

Weather Underground

Northeastern Weather Network

AWEKAS

Citizen Weather Observer Program (CWOP)

HAMweather, WeatherForYou, PWS Weather


Weather Underground History page Text

Daily Summary for November 16, 2017 Units:  Both    English   Metric
« Previous Day
Next Day »
Daily Weekly Monthly Yearly Custom
  High: Low: Average:
Temperature: 55.6 °F /  13.1 °C 45.8 °F /  7.7 °C 50.9 °F /  10.5 °C
Dew Point: 53.1 °F /  11.7 °C 37.0 °F /  2.8 °C 43.8 °F /  6.6 °C
Humidity: 96 % 65 % 77 %
Wind Speed: 13.3 mph /  21.4 km/h - 4.3 mph /  6.9 km/h
Wind Gust: 22.0 mph /  35.4 km/h - -
Wind:- - SW
Pressure: 30.05 in /  1017.5 hPa 29.62 in /  1002.9 hPa -
Precipitation: 0.60 in /  15.24 mm    
Historical Graphs
 
 
Tabular Data for November 16, 2017
Time Temperature Dew Point Pressure Wind Wind Speed Wind Gust Humidity Rainfall Rate (Hourly)
00:05 46.6 °F /  8.1 °C 39.8 °F /  4.3 °C 30.04 in /  1017.2 hPa SE 1.4 mph /  2.3 km/h 5.8 mph /  9.3 km/h 77 % 0.00 in /  0 mm
00:10 46.7 °F /  8.2 °C 39.9 °F /  4.4 °C 30.04 in /  1017.2 hPa SE 1.7 mph /  2.7 km/h 4.6 mph /  7.4 km/h 77 % 0.00 in /  0 mm
00:15 46.8 °F /  8.2 °C 40.0 °F /  4.4 °C 30.04 in /  1017.2 hPa SE 1.5 mph /  2.4 km/h 5.8 mph /  9.3 km/h 77 % 0.00 in /  0 mm
00:20 46.8 °F /  8.2 °C 40.0 °F /  4.4 °C 30.04 in /  1017.2 hPa SE 1.0 mph /  1.6 km/h 2.3 mph /  3.7 km/h 77 % 0.00 in /  0 mm
00:25 46.9 °F /  8.3 °C 40.1 °F /  4.5 °C 30.03 in /  1016.8 hPa SE 3.7 mph /  6 km/h 5.0 mph /  8 km/h 77 % 0.00 in /  0 mm
00:30 47.0 °F /  8.3 °C 40.2 °F /  4.6 °C 30.03 in /  1016.8 hPa SE 0.2 mph /  0.3 km/h 6.9 mph /  11.1 km/h 77 % 0.00 in /  0 mm
00:35 47.1 °F /  8.4 °C 40.3 °F /  4.6 °C 30.03 in /  1016.8 hPa SE 3.1 mph /  5 km/h 4.6 mph /  7.4 km/h 77 % 0.00 in /  0 mm
00:40 47.2 °F /  8.4 °C 40.4 °F /  4.7 °C 30.05 in /  1017.5 hPa SE 3.5 mph /  5.6 km/h 4.6 mph /  7.4 km/h 77 % 0.00 in /  0 mm
00:45 47.3 °F /  8.5 °C 40.5 °F /  4.7 °C 30.04 in /  1017.2 hPa SSE 3.2 mph /  5.1 km/h 4.6 mph /  7.4 km/h 77 % 0.00 in /  0 mm
00:50 47.4 °F /  8.6 °C 40.2 °F /  4.6 °C 30.04 in /  1017.2 hPa SSE 2.8 mph /  4.5 km/h 6.9 mph /  11.1 km/h 76 % 0.00 in /  0 mm
00:55 47.4 °F /  8.6 °C 40.6 °F /  4.8 °C 30.04 in /  1017.2 hPa SSE 1.9 mph /  3.1 km/h 4.0 mph /  6.4 km/h 77 % 0.00 in /  0 mm
01:01 47.5 °F /  8.6 °C 40.6 °F /  4.8 °C 30.04 in /  1017.2 hPa SE 2.0 mph /  3.2 km/h 8.1 mph /  13 km/h 77 % 0.00 in /  0 mm
01:06 47.6 °F /  8.7 °C 40.4 °F /  4.7 °C 30.03 in /  1016.8 hPa SE 3.0 mph /  4.8 km/h 10.0 mph /  16.1 km/h 76 % 0.00 in /  0 mm
01:11 47.6 °F /  8.7 °C 40.4 °F /  4.7 °C 30.04 in /  1017.2 hPa SE 2.0 mph /  3.2 km/h 7.0 mph /  11.3 km/h 76 % 0.00 in /  0 mm
01:16 47.7 °F /  8.7 °C 40.5 °F /  4.7 °C 30.03 in /  1016.8 hPa Calm   4.0 mph /  6.4 km/h 76 % 0.00 in /  0 mm
01:21 47.8 °F /  8.8 °C 40.6 °F /  4.8 °C 30.02 in /  1016.5 hPa SSE 1.0 mph /  1.6 km/h 2.0 mph /  3.2 km/h 76 % 0.00 in /  0 mm
01:26 47.8 °F /  8.8 °C 40.9 °F /  4.9 °C 30.01 in /  1016.1 hPa Calm   4.0 mph /  6.4 km/h 77 % 0.00 in /  0 mm
01:31 47.9 °F /  8.8 °C 41.0 °F /  5 °C 30.02 in /  1016.5 hPa South 2.0 mph /  3.2 km/h 6.0 mph /  9.7 km/h 77 % 0.00 in /  0 mm
01:36 47.9 °F /  8.8 °C 41.0 °F /  5 °C 30.02 in /  1016.5 hPa SE 2.9 mph /  4.7 km/h 4.0 mph /  6.4 km/h 77 % 0.00 in /  0 mm
01:41 47.9 °F /  8.8 °C 41.0 °F /  5 °C 30.01 in /  1016.1 hPa SE 1.6 mph /  2.6 km/h 4.0 mph /  6.4 km/h 77 % 0.00 in /  0 mm
01:46 48.0 °F /  8.9 °C 41.1 °F /  5.1 °C 30.01 in /  1016.1 hPa SE 1.0 mph /  1.6 km/h 4.0 mph /  6.4 km/h 77 % 0.00 in /  0 mm
01:51 48.0 °F /  8.9 °C 41.2 °F /  5.1 °C 30.01 in /  1016.1 hPa SE 2.0 mph /  3.2 km/h 7.0 mph /  11.3 km/h 77 % 0.00 in /  0 mm
01:56 48.1 °F /  8.9 °C 41.2 °F /  5.1 °C 30.01 in /  1016.1 hPa SE 3.0 mph /  4.8 km/h 7.0 mph /  11.3 km/h 77 % 0.00 in /  0 mm
02:01 48.1 °F /  8.9 °C 41.2 °F /  5.1 °C 30.01 in /  1016.1 hPa East 1.8 mph /  2.9 km/h 6.9 mph /  11.1 km/h 77 % 0.00 in /  0 mm
02:06 48.2 °F /  9 °C 41.3 °F /  5.2 °C 30.01 in /  1016.1 hPa SE 2.0 mph /  3.2 km/h 7.0 mph /  11.3 km/h 77 % 0.00 in /  0 mm
02:11 48.2 °F /  9 °C 41.3 °F /  5.2 °C 30.01 in /  1016.1 hPa SE 3.0 mph /  4.8 km/h 6.0 mph /  9.7 km/h 77 % 0.00 in /  0 mm
02:16 48.3 °F /  9.1 °C 41.4 °F /  5.2 °C 30.00 in /  1015.8 hPa SE 1.0 mph /  1.6 km/h 5.0 mph /  8 km/h 77 % 0.00 in /  0 mm
02:21 48.4 °F /  9.1 °C 41.5 °F /  5.3 °C 30.00 in /  1015.8 hPa SE 3.0 mph /  4.8 km/h 7.0 mph /  11.3 km/h 77 % 0.00 in /  0 mm
02:26 48.4 °F /  9.1 °C 41.9 °F /  5.5 °C 30.00 in /  1015.8 hPa ESE 1.5 mph /  2.4 km/h 3.5 mph /  5.6 km/h 78 % 0.00 in /  0 mm
02:31 48.4 °F /  9.1 °C 41.9 °F /  5.5 °C 30.00 in /  1015.8 hPa SE 1.0 mph /  1.6 km/h 4.0 mph /  6.4 km/h 78 % 0.00 in /  0 mm
02:36 48.5 °F /  9.2 °C 41.9 °F /  5.5 °C 30.00 in /  1015.8 hPa SE 1.0 mph /  1.6 km/h 7.0 mph /  11.3 km/h 78 % 0.00 in /  0 mm
02:41 48.5 °F /  9.2 °C 42.0 °F /  5.6 °C 29.99 in /  1015.5 hPa Calm   1.0 mph /  1.6 km/h 78 % 0.00 in /  0 mm
02:46 48.5 °F /  9.2 °C 42.0 °F /  5.6 °C 29.99 in /  1015.5 hPa Calm   2.0 mph /  3.2 km/h 78 % 0.00 in /  0 mm
02:51 48.5 °F /  9.2 °C 42.0 °F /  5.6 °C 29.99 in /  1015.5 hPa Calm   1.0 mph /  1.6 km/h 78 % 0.00 in /  0 mm
02:56 48.4 °F /  9.1 °C 41.9 °F /  5.5 °C 29.98 in /  1015.1 hPa Calm   1.0 mph /  1.6 km/h 78 % 0.00 in /  0 mm
03:01 48.4 °F /  9.1 °C 42.2 °F /  5.7 °C 29.98 in /  1015.1 hPa Calm     79 % 0.00 in /  0 mm
03:06 48.4 °F /  9.1 °C 42.2 °F /  5.7 °C 29.98 in /  1015.1 hPa Calm   2.0 mph /  3.2 km/h 79 % 0.00 in /  0 mm
03:11 48.4 °F /  9.1 °C 42.2 °F /  5.7 °C 29.98 in /  1015.1 hPa Calm   2.0 mph /  3.2 km/h 79 % 0.00 in /  0 mm
03:21 48.3 °F /  9.1 °C 42.1 °F /  5.6 °C 29.97 in /  1014.8 hPa SE 1.9 mph /  3.1 km/h 3.5 mph /  5.6 km/h 79 % 0.00 in /  0 mm
03:26 48.3 °F /  9.1 °C 42.1 °F /  5.6 °C 29.96 in /  1014.4 hPa SE 1.0 mph /  1.6 km/h 6.0 mph /  9.7 km/h 79 % 0.00 in /  0 mm
03:31 48.4 °F /  9.1 °C 42.5 °F /  5.8 °C 29.96 in /  1014.4 hPa SE 1.0 mph /  1.6 km/h 4.0 mph /  6.4 km/h 80 % 0.00 in /  0 mm
03:36 48.4 °F /  9.1 °C 42.5 °F /  5.8 °C 29.96 in /  1014.4 hPa SE 2.0 mph /  3.2 km/h 4.0 mph /  6.4 km/h 80 % 0.00 in /  0 mm
03:41 48.4 °F /  9.1 °C 42.5 °F /  5.8 °C 29.96 in /  1014.4 hPa SSE 3.0 mph /  4.8 km/h 5.0 mph /  8 km/h 80 % 0.00 in /  0 mm
03:46 48.5 °F /  9.2 °C 42.9 °F /  6.1 °C 29.95 in /  1014.1 hPa SSE 2.0 mph /  3.2 km/h 5.0 mph /  8 km/h 81 % 0.00 in /  0 mm
03:51 48.5 °F /  9.2 °C 43.0 °F /  6.1 °C 29.95 in /  1014.1 hPa SE 3.0 mph /  4.8 km/h 6.0 mph /  9.7 km/h 81 % 0.00 in /  0 mm
03:56 48.7 °F /  9.3 °C 43.1 °F /  6.2 °C 29.95 in /  1014.1 hPa SE 1.0 mph /  1.6 km/h 6.0 mph /  9.7 km/h 81 % 0.00 in /  0 mm
04:01 48.8 °F /  9.3 °C 43.5 °F /  6.4 °C 29.94 in /  1013.8 hPa SSE 2.3 mph /  3.7 km/h 3.5 mph /  5.6 km/h 82 % 0.00 in /  0 mm
04:06 49.1 °F /  9.5 °C 43.8 °F /  6.6 °C 29.94 in /  1013.8 hPa SE 2.5 mph /  4 km/h 6.0 mph /  9.7 km/h 82 % 0.00 in /  0 mm
04:11 49.4 °F /  9.7 °C 44.1 °F /  6.7 °C 29.94 in /  1013.8 hPa SE 2.3 mph /  3.7 km/h 4.6 mph /  7.4 km/h 82 % 0.00 in /  0 mm
04:16 49.5 °F /  9.7 °C 44.2 °F /  6.8 °C 29.94 in /  1013.8 hPa SSE 1.6 mph /  2.6 km/h 3.5 mph /  5.6 km/h 82 % 0.00 in /  0 mm
04:21 49.6 °F /  9.8 °C 44.3 °F /  6.8 °C 29.94 in /  1013.8 hPa SE 2.3 mph /  3.7 km/h 3.5 mph /  5.6 km/h 82 % 0.00 in /  0 mm
04:26 49.9 °F /  9.9 °C 44.6 °F /  7 °C 29.94 in /  1013.8 hPa SE 5.6 mph /  9 km/h 9.2 mph /  14.8 km/h 82 % 0.00 in /  0 mm
04:36 50.6 °F /  10.3 °C 45.0 °F /  7.2 °C 29.93 in /  1013.4 hPa SE 5.5 mph /  8.9 km/h 13.8 mph /  22.2 km/h 81 % 0.00 in /  0 mm
04:41 50.9 °F /  10.5 °C 44.9 °F /  7.2 °C 29.92 in /  1013.1 hPa SE 6.6 mph /  10.6 km/h 7.0 mph /  11.3 km/h 80 % 0.00 in /  0 mm
04:47 51.2 °F /  10.7 °C 45.2 °F /  7.3 °C 29.92 in /  1013.1 hPa SSE 1.8 mph /  2.9 km/h 11.5 mph /  18.5 km/h 80 % 0.00 in /  0 mm
04:52 51.4 °F /  10.8 °C 45.4 °F /  7.4 °C 29.92 in /  1013.1 hPa SSE 3.3 mph /  5.3 km/h 10.4 mph /  16.7 km/h 80 % 0.00 in /  0 mm
04:57 51.4 °F /  10.8 °C 45.1 °F /  7.3 °C 29.92 in /  1013.1 hPa SE 3.3 mph /  5.3 km/h 6.0 mph /  9.7 km/h 79 % 0.00 in /  0 mm
05:02 51.5 °F /  10.8 °C 45.2 °F /  7.3 °C 29.91 in /  1012.8 hPa SSE 3.2 mph /  5.1 km/h 6.9 mph /  11.1 km/h 79 % 0.00 in /  0 mm
05:07 51.6 °F /  10.9 °C 45.6 °F /  7.6 °C 29.91 in /  1012.8 hPa SSE 5.0 mph /  8 km/h 9.2 mph /  14.8 km/h 80 % 0.00 in /  0 mm
05:17 51.7 °F /  10.9 °C 45.7 °F /  7.6 °C 29.91 in /  1012.8 hPa South 6.7 mph /  10.8 km/h 11.5 mph /  18.5 km/h 80 % 0.00 in /  0 mm
05:22 51.8 °F /  11 °C 45.5 °F /  7.5 °C 29.91 in /  1012.8 hPa SSE 3.1 mph /  5 km/h 10.4 mph /  16.7 km/h 79 % 0.00 in /  0 mm
05:27 51.9 °F /  11.1 °C 45.6 °F /  7.6 °C 29.91 in /  1012.8 hPa SE 6.9 mph /  11.1 km/h 12.0 mph /  19.3 km/h 79 % 0.00 in /  0 mm
05:32 52.0 °F /  11.1 °C 45.7 °F /  7.6 °C 29.91 in /  1012.8 hPa SSE 10.1 mph /  16.3 km/h 12.0 mph /  19.3 km/h 79 % 0.00 in /  0 mm
05:37 52.0 °F /  11.1 °C 45.7 °F /  7.6 °C 29.90 in /  1012.4 hPa SSE 5.2 mph /  8.4 km/h 11.0 mph /  17.7 km/h 79 % 0.00 in /  0 mm
05:42 52.0 °F /  11.1 °C 45.7 °F /  7.6 °C 29.89 in /  1012.1 hPa SSE 4.0 mph /  6.4 km/h 10.4 mph /  16.7 km/h 79 % 0.00 in /  0 mm
05:47 52.0 °F /  11.1 °C 45.7 °F /  7.6 °C 29.89 in /  1012.1 hPa SE 5.0 mph /  8 km/h 8.0 mph /  12.9 km/h 79 % 0.00 in /  0 mm
05:52 52.0 °F /  11.1 °C 45.7 °F /  7.6 °C 29.89 in /  1012.1 hPa SE 1.4 mph /  2.3 km/h 5.8 mph /  9.3 km/h 79 % 0.00 in /  0 mm
05:57 52.0 °F /  11.1 °C 45.7 °F /  7.6 °C 29.89 in /  1012.1 hPa SSE 7.3 mph /  11.7 km/h 11.5 mph /  18.5 km/h 79 % 0.00 in /  0 mm
06:02 52.0 °F /  11.1 °C 45.7 °F /  7.6 °C 29.89 in /  1012.1 hPa SSE 5.2 mph /  8.4 km/h 7.0 mph /  11.3 km/h 79 % 0.00 in /  0 mm
06:07 52.1 °F /  11.2 °C 45.8 °F /  7.7 °C 29.89 in /  1012.1 hPa SSE 3.8 mph /  6.1 km/h 5.8 mph /  9.3 km/h 79 % 0.00 in /  0 mm
06:12 52.1 °F /  11.2 °C 45.8 °F /  7.7 °C 29.89 in /  1012.1 hPa South 5.2 mph /  8.4 km/h 9.2 mph /  14.8 km/h 79 % 0.00 in /  0 mm
06:17 52.1 °F /  11.2 °C 45.8 °F /  7.7 °C 29.89 in /  1012.1 hPa SE 5.0 mph /  8 km/h 9.0 mph /  14.5 km/h 79 % 0.00 in /  0 mm
06:22 52.2 °F /  11.2 °C 45.9 °F /  7.7 °C 29.88 in /  1011.7 hPa SE 2.7 mph /  4.3 km/h 7.0 mph /  11.3 km/h 79 % 0.00 in /  0 mm
06:27 52.3 °F /  11.3 °C 46.0 °F /  7.8 °C 29.89 in /  1012.1 hPa SSE 2.5 mph /  4 km/h 3.5 mph /  5.6 km/h 79 % 0.00 in /  0 mm
06:32 52.3 °F /  11.3 °C 46.0 °F /  7.8 °C 29.88 in /  1011.7 hPa SSE 4.9 mph /  7.9 km/h 8.1 mph /  13 km/h 79 % 0.00 in /  0 mm
06:37 52.4 °F /  11.3 °C 46.4 °F /  8 °C 29.88 in /  1011.7 hPa SSW 1.9 mph /  3.1 km/h 5.8 mph /  9.3 km/h 80 % 0.00 in /  0 mm
06:42 52.4 °F /  11.3 °C 46.4 °F /  8 °C 29.88 in /  1011.7 hPa Calm   3.5 mph /  5.6 km/h 80 % 0.00 in /  0 mm
06:47 52.4 °F /  11.3 °C 46.7 °F /  8.2 °C 29.87 in /  1011.4 hPa SE 1.2 mph /  1.9 km/h 9.2 mph /  14.8 km/h 81 % 0.00 in /  0 mm
06:52 52.5 °F /  11.4 °C 47.2 °F /  8.4 °C 29.87 in /  1011.4 hPa SSE 5.1 mph /  8.2 km/h 6.9 mph /  11.1 km/h 82 % 0.00 in /  0 mm
06:58 52.6 °F /  11.4 °C 47.3 °F /  8.5 °C 29.87 in /  1011.4 hPa South 4.2 mph /  6.8 km/h 11.5 mph /  18.5 km/h 82 % 0.00 in /  0 mm
07:03 52.6 °F /  11.4 °C 47.6 °F /  8.7 °C 29.87 in /  1011.4 hPa SSE 4.5 mph /  7.2 km/h 9.2 mph /  14.8 km/h 83 % 0.00 in /  0 mm
07:08 52.7 °F /  11.5 °C 47.7 °F /  8.7 °C 29.87 in /  1011.4 hPa SSE 4.9 mph /  7.9 km/h 9.2 mph /  14.8 km/h 83 % 0.00 in /  0 mm
07:13 52.8 °F /  11.6 °C 47.8 °F /  8.8 °C 29.86 in /  1011.1 hPa SE 6.2 mph /  10 km/h 11.5 mph /  18.5 km/h 83 % 0.00 in /  0 mm
07:18 52.9 °F /  11.6 °C 48.2 °F /  9 °C 29.86 in /  1011.1 hPa SSE 5.3 mph /  8.5 km/h 9.2 mph /  14.8 km/h 84 % 0.00 in /  0 mm
07:23 53.0 °F /  11.7 °C 48.3 °F /  9.1 °C 29.86 in /  1011.1 hPa SSE 3.0 mph /  4.8 km/h 9.0 mph /  14.5 km/h 84 % 0.00 in /  0 mm
07:28 53.1 °F /  11.7 °C 48.4 °F /  9.1 °C 29.85 in /  1010.7 hPa SSE 3.3 mph /  5.3 km/h 4.6 mph /  7.4 km/h 84 % 0.00 in /  0 mm
07:33 53.1 °F /  11.7 °C 48.4 °F /  9.1 °C 29.85 in /  1010.7 hPa SSE 4.5 mph /  7.2 km/h 13.8 mph /  22.2 km/h 84 % 0.00 in /  0 mm
07:38 53.3 °F /  11.8 °C 48.3 °F /  9.1 °C 29.85 in /  1010.7 hPa SE 4.1 mph /  6.6 km/h 11.5 mph /  18.5 km/h 83 % 0.00 in /  0 mm
07:43 53.4 °F /  11.9 °C 48.7 °F /  9.3 °C 29.85 in /  1010.7 hPa SE 6.1 mph /  9.8 km/h 8.0 mph /  12.9 km/h 84 % 0.00 in /  0 mm
07:49 53.5 °F /  11.9 °C 48.8 °F /  9.3 °C 29.85 in /  1010.7 hPa SE 2.3 mph /  3.7 km/h 8.1 mph /  13 km/h 84 % 0.00 in /  0 mm
07:54 53.6 °F /  12 °C 49.2 °F /  9.6 °C 29.85 in /  1010.7 hPa ESE 3.2 mph /  5.1 km/h 8.0 mph /  12.9 km/h 85 % 0.00 in /  0 mm
07:59 53.6 °F /  12 °C 49.5 °F /  9.7 °C 29.87 in /  1011.4 hPa WSW 4.9 mph /  7.9 km/h 8.0 mph /  12.9 km/h 86 % 0.00 in /  0 mm
08:04 53.5 °F /  11.9 °C 49.7 °F /  9.8 °C 29.88 in /  1011.7 hPa NNW 12.1 mph /  19.5 km/h 21.9 mph /  35.2 km/h 87 % 0.04 in /  1.02 mm
08:09 52.6 °F /  11.4 °C 48.2 °F /  9 °C 29.87 in /  1011.4 hPa SW 5.2 mph /  8.4 km/h 15.0 mph /  24.1 km/h 85 % 0.23 in /  5.84 mm
08:14 52.2 °F /  11.2 °C 48.4 °F /  9.1 °C 29.87 in /  1011.4 hPa WSW 1.1 mph /  1.8 km/h 3.5 mph /  5.6 km/h 87 % 0.29 in /  7.37 mm
08:19 51.9 °F /  11.1 °C 48.8 °F /  9.3 °C 29.87 in /  1011.4 hPa SSW 1.8 mph /  2.9 km/h 6.9 mph /  11.1 km/h 89 % 0.33 in /  8.38 mm
08:24 51.8 °F /  11 °C 48.7 °F /  9.3 °C 29.87 in /  1011.4 hPa SW 0.3 mph /  0.5 km/h 2.3 mph /  3.7 km/h 89 % 0.37 in /  9.4 mm
08:29 51.7 °F /  10.9 °C 48.9 °F /  9.4 °C 29.87 in /  1011.4 hPa WSW 0.8 mph /  1.3 km/h 3.5 mph /  5.6 km/h 90 % 0.40 in /  10.16 mm
08:34 51.5 °F /  10.8 °C 48.7 °F /  9.3 °C 29.87 in /  1011.4 hPa Calm   1.2 mph /  1.9 km/h 90 % 0.42 in /  10.67 mm
08:39 51.5 °F /  10.8 °C 49.0 °F /  9.4 °C 29.86 in /  1011.1 hPa WSW 0.2 mph /  0.3 km/h 1.2 mph /  1.9 km/h 91 % 0.43 in /  10.92 mm
08:44 51.4 °F /  10.8 °C 48.9 °F /  9.4 °C 29.86 in /  1011.1 hPa Calm     91 % 0.44 in /  11.18 mm
08:49 51.4 °F /  10.8 °C 48.9 °F /  9.4 °C 29.86 in /  1011.1 hPa WSW 0.8 mph /  1.3 km/h 2.3 mph /  3.7 km/h 91 % 0.45 in /  11.43 mm
08:54 51.4 °F /  10.8 °C 49.2 °F /  9.6 °C 29.86 in /  1011.1 hPa WSW 1.7 mph /  2.7 km/h 3.0 mph /  4.8 km/h 92 % 0.46 in /  11.68 mm
08:59 51.4 °F /  10.8 °C 49.4 °F /  9.7 °C 29.85 in /  1010.7 hPa WSW 0.8 mph /  1.3 km/h 3.5 mph /  5.6 km/h 93 % 0.47 in /  11.94 mm
09:04 51.5 °F /  10.8 °C 49.5 °F /  9.7 °C 29.85 in /  1010.7 hPa WSW 0.1 mph /  0.2 km/h 1.2 mph /  1.9 km/h 93 % 0.36 in /  9.14 mm
09:09 51.6 °F /  10.9 °C 49.9 °F /  9.9 °C 29.84 in /  1010.4 hPa WSW 1.9 mph /  3.1 km/h 3.5 mph /  5.6 km/h 94 % 0.24 in /  6.1 mm
09:14 51.7 °F /  10.9 °C 50.0 °F /  10 °C 29.84 in /  1010.4 hPa WSW 0.4 mph /  0.6 km/h 2.3 mph /  3.7 km/h 94 % 0.19 in /  4.83 mm
09:17 51.8 °F /  11 °C 50.1 °F /  10.1 °C 29.84 in /  1010.4 hPa Calm     94 % 0.16 in /  4.06 mm
09:22 52.1 °F /  11.2 °C 50.7 °F /  10.4 °C 29.84 in /  1010.4 hPa WSW 0.4 mph /  0.6 km/h 2.0 mph /  3.2 km/h 95 % 0.14 in /  3.56 mm
09:27 52.5 °F /  11.4 °C 51.1 °F /  10.6 °C 29.84 in /  1010.4 hPa West 0.2 mph /  0.3 km/h 2.0 mph /  3.2 km/h 95 % 0.11 in /  2.79 mm
09:38 53.8 °F /  12.1 °C 52.7 °F /  11.5 °C 29.83 in /  1010 hPa WSW 3.0 mph /  4.8 km/h 6.9 mph /  11.1 km/h 96 % 0.08 in /  2.03 mm
09:43 54.1 °F /  12.3 °C 53.0 °F /  11.7 °C 29.83 in /  1010 hPa West 3.1 mph /  5 km/h 9.2 mph /  14.8 km/h 96 % 0.07 in /  1.78 mm
09:48 54.1 °F /  12.3 °C 52.7 °F /  11.5 °C 29.83 in /  1010 hPa WNW 0.5 mph /  0.8 km/h 6.9 mph /  11.1 km/h 95 % 0.07 in /  1.78 mm
09:53 54.2 °F /  12.3 °C 52.8 °F /  11.6 °C 29.83 in /  1010 hPa West 5.0 mph /  8 km/h 9.0 mph /  14.5 km/h 95 % 0.06 in /  1.52 mm
09:58 54.2 °F /  12.3 °C 52.8 °F /  11.6 °C 29.84 in /  1010.4 hPa WSW 2.1 mph /  3.4 km/h 9.0 mph /  14.5 km/h 95 % 0.06 in /  1.52 mm
10:03 54.2 °F /  12.3 °C 52.5 °F /  11.4 °C 29.83 in /  1010 hPa WSW 3.5 mph /  5.6 km/h 4.6 mph /  7.4 km/h 94 % 0.06 in /  1.52 mm
10:08 54.1 °F /  12.3 °C 52.4 °F /  11.3 °C 29.83 in /  1010 hPa SW 0.9 mph /  1.4 km/h 8.1 mph /  13 km/h 94 % 0.05 in /  1.27 mm
10:13 54.0 °F /  12.2 °C 52.3 °F /  11.3 °C 29.83 in /  1010 hPa WSW 1.8 mph /  2.9 km/h 3.5 mph /  5.6 km/h 94 % 0.04 in /  1.02 mm
10:18 54.0 °F /  12.2 °C 52.3 °F /  11.3 °C 29.83 in /  1010 hPa SW 1.5 mph /  2.4 km/h 4.6 mph /  7.4 km/h 94 % 0.05 in /  1.27 mm
10:23 54.0 °F /  12.2 °C 52.3 °F /  11.3 °C 29.82 in /  1009.7 hPa WSW 3.3 mph /  5.3 km/h 6.0 mph /  9.7 km/h 94 % 0.04 in /  1.02 mm
10:28 54.3 °F /  12.4 °C 52.6 °F /  11.4 °C 29.82 in /  1009.7 hPa SW 2.0 mph /  3.2 km/h 4.0 mph /  6.4 km/h 94 % 0.04 in /  1.02 mm
10:33 54.5 °F /  12.5 °C 52.8 °F /  11.6 °C 29.81 in /  1009.4 hPa WSW 4.2 mph /  6.8 km/h 8.1 mph /  13 km/h 94 % 0.03 in /  0.76 mm
10:38 54.6 °F /  12.6 °C 52.6 °F /  11.4 °C 29.81 in /  1009.4 hPa WSW 1.5 mph /  2.4 km/h 2.3 mph /  3.7 km/h 93 % 0.03 in /  0.76 mm
10:43 54.8 °F /  12.7 °C 53.1 °F /  11.7 °C 29.81 in /  1009.4 hPa WNW 1.2 mph /  1.9 km/h 3.5 mph /  5.6 km/h 94 % 0.04 in /  1.02 mm
10:48 55.0 °F /  12.8 °C 53.0 °F /  11.7 °C 29.81 in /  1009.4 hPa South 0.3 mph /  0.5 km/h 5.8 mph /  9.3 km/h 93 % 0.03 in /  0.76 mm
10:53 55.0 °F /  12.8 °C 53.0 °F /  11.7 °C 29.80 in /  1009 hPa West 4.5 mph /  7.2 km/h 7.0 mph /  11.3 km/h 93 % 0.03 in /  0.76 mm
10:58 55.0 °F /  12.8 °C 52.7 °F /  11.5 °C 29.81 in /  1009.4 hPa SW 3.9 mph /  6.3 km/h 4.6 mph /  7.4 km/h 92 % 0.02 in /  0.51 mm
11:03 54.9 °F /  12.7 °C 52.3 °F /  11.3 °C 29.80 in /  1009 hPa SW 3.9 mph /  6.3 km/h 5.8 mph /  9.3 km/h 91 % 0.02 in /  0.51 mm
11:08 54.9 °F /  12.7 °C 52.3 °F /  11.3 °C 29.80 in /  1009 hPa WNW 0.2 mph /  0.3 km/h 3.5 mph /  5.6 km/h 91 % 0.02 in /  0.51 mm
11:13 54.8 °F /  12.7 °C 51.9 °F /  11.1 °C 29.79 in /  1008.7 hPa NW 2.5 mph /  4 km/h 4.0 mph /  6.4 km/h 90 % 0.03 in /  0.76 mm
11:18 54.7 °F /  12.6 °C 51.8 °F /  11 °C 29.79 in /  1008.7 hPa SW 4.1 mph /  6.6 km/h 9.2 mph /  14.8 km/h 90 % 0.02 in /  0.51 mm
11:24 54.6 °F /  12.6 °C 51.4 °F /  10.8 °C 29.79 in /  1008.7 hPa SW 5.5 mph /  8.9 km/h 7.0 mph /  11.3 km/h 89 % 0.02 in /  0.51 mm
11:29 54.5 °F /  12.5 °C 51.3 °F /  10.7 °C 29.79 in /  1008.7 hPa WSW 0.4 mph /  0.6 km/h 3.5 mph /  5.6 km/h 89 % 0.02 in /  0.51 mm
11:34 54.5 °F /  12.5 °C 51.3 °F /  10.7 °C 29.78 in /  1008.4 hPa WSW 2.3 mph /  3.7 km/h 4.6 mph /  7.4 km/h 89 % 0.02 in /  0.51 mm
11:39 54.5 °F /  12.5 °C 51.3 °F /  10.7 °C 29.78 in /  1008.4 hPa SW 4.1 mph /  6.6 km/h 6.9 mph /  11.1 km/h 89 % 0.03 in /  0.76 mm
11:44 54.5 °F /  12.5 °C 51.0 °F /  10.6 °C 29.78 in /  1008.4 hPa SW 3.5 mph /  5.6 km/h 5.8 mph /  9.3 km/h 88 % 0.02 in /  0.51 mm
11:49 54.6 °F /  12.6 °C 51.1 °F /  10.6 °C 29.77 in /  1008 hPa WNW 3.0 mph /  4.8 km/h 6.9 mph /  11.1 km/h 88 % 0.02 in /  0.51 mm
11:54 54.6 °F /  12.6 °C 51.1 °F /  10.6 °C 29.77 in /  1008 hPa WNW 3.6 mph /  5.8 km/h 8.1 mph /  13 km/h 88 % 0.02 in /  0.51 mm
11:59 54.7 °F /  12.6 °C 50.3 °F /  10.2 °C 29.77 in /  1008 hPa WNW 4.5 mph /  7.2 km/h 7.0 mph /  11.3 km/h 85 % 0.02 in /  0.51 mm
12:04 54.6 °F /  12.6 °C 49.5 °F /  9.7 °C 29.77 in /  1008 hPa West 3.4 mph /  5.5 km/h 6.9 mph /  11.1 km/h 83 % 0.02 in /  0.51 mm
12:09 54.6 °F /  12.6 °C 49.5 °F /  9.7 °C 29.77 in /  1008 hPa WSW 5.6 mph /  9 km/h 9.2 mph /  14.8 km/h 83 % 0.02 in /  0.51 mm
12:14 54.6 °F /  12.6 °C 49.5 °F /  9.7 °C 29.76 in /  1007.7 hPa WNW 4.0 mph /  6.4 km/h 5.8 mph /  9.3 km/h 83 % 0.02 in /  0.51 mm
12:19 54.6 °F /  12.6 °C 49.5 °F /  9.7 °C 29.75 in /  1007.3 hPa West 3.7 mph /  6 km/h 5.8 mph /  9.3 km/h 83 % 0.02 in /  0.51 mm
12:24 54.7 °F /  12.6 °C 49.6 °F /  9.8 °C 29.75 in /  1007.3 hPa WNW 4.2 mph /  6.8 km/h 6.9 mph /  11.1 km/h 83 % 0.02 in /  0.51 mm
12:29 54.7 °F /  12.6 °C 49.6 °F /  9.8 °C 29.75 in /  1007.3 hPa WNW 3.3 mph /  5.3 km/h 8.1 mph /  13 km/h 83 % 0.02 in /  0.51 mm
12:34 54.8 °F /  12.7 °C 49.7 °F /  9.8 °C 29.76 in /  1007.7 hPa West 1.8 mph /  2.9 km/h 7.0 mph /  11.3 km/h 83 % 0.02 in /  0.51 mm
12:39 54.8 °F /  12.7 °C 49.7 °F /  9.8 °C 29.75 in /  1007.3 hPa West 4.6 mph /  7.4 km/h 6.0 mph /  9.7 km/h 83 % 0.02 in /  0.51 mm
12:44 54.7 °F /  12.6 °C 49.3 °F /  9.6 °C 29.75 in /  1007.3 hPa WSW 3.2 mph /  5.1 km/h 5.0 mph /  8 km/h 82 % 0.02 in /  0.51 mm
12:49 54.7 °F /  12.6 °C 49.3 °F /  9.6 °C 29.75 in /  1007.3 hPa WNW 4.3 mph /  6.9 km/h 10.4 mph /  16.7 km/h 82 % 0.02 in /  0.51 mm
12:54 54.6 °F /  12.6 °C 49.2 °F /  9.6 °C 29.74 in /  1007 hPa West 4.9 mph /  7.9 km/h 8.1 mph /  13 km/h 82 % 0.02 in /  0.51 mm
12:59 54.6 °F /  12.6 °C 49.2 °F /  9.6 °C 29.74 in /  1007 hPa West 4.1 mph /  6.6 km/h 8.1 mph /  13 km/h 82 % 0.03 in /  0.76 mm
13:04 54.7 °F /  12.6 °C 49.3 °F /  9.6 °C 29.74 in /  1007 hPa SW 1.9 mph /  3.1 km/h 3.5 mph /  5.6 km/h 82 % 0.03 in /  0.76 mm
13:10 54.8 °F /  12.7 °C 49.1 °F /  9.5 °C 29.75 in /  1007.3 hPa WSW 6.7 mph /  10.8 km/h 12.7 mph /  20.4 km/h 81 % 0.02 in /  0.51 mm
13:15 54.8 °F /  12.7 °C 49.1 °F /  9.5 °C 29.74 in /  1007 hPa WSW 3.0 mph /  4.8 km/h 10.4 mph /  16.7 km/h 81 % 0.02 in /  0.51 mm
13:17 54.8 °F /  12.7 °C 49.1 °F /  9.5 °C 29.74 in /  1007 hPa WSW 3.8 mph /  6.1 km/h 6.9 mph /  11.1 km/h 81 % 0.02 in /  0.51 mm
13:22 55.0 °F /  12.8 °C 49.3 °F /  9.6 °C 29.75 in /  1007.3 hPa WNW 3.3 mph /  5.3 km/h 6.9 mph /  11.1 km/h 81 % 0.02 in /  0.51 mm
13:27 55.1 °F /  12.8 °C 49.0 °F /  9.4 °C 29.74 in /  1007 hPa SW 4.4 mph /  7.1 km/h 8.1 mph /  13 km/h 80 % 0.02 in /  0.51 mm
13:32 55.3 °F /  12.9 °C 49.2 °F /  9.6 °C 29.74 in /  1007 hPa SW 5.2 mph /  8.4 km/h 8.1 mph /  13 km/h 80 % 0.02 in /  0.51 mm
13:37 55.3 °F /  12.9 °C 48.9 °F /  9.4 °C 29.74 in /  1007 hPa West 1.9 mph /  3.1 km/h 8.1 mph /  13 km/h 79 % 0.01 in /  0.25 mm
13:38 55.3 °F /  12.9 °C 48.9 °F /  9.4 °C 29.74 in /  1007 hPa WNW 2.4 mph /  3.9 km/h 5.8 mph /  9.3 km/h 79 % 0.01 in /  0.25 mm
13:43 55.3 °F /  12.9 °C 48.9 °F /  9.4 °C 29.74 in /  1007 hPa South 3.0 mph /  4.8 km/h 8.1 mph /  13 km/h 79 % 0.01 in /  0.25 mm
13:48 55.2 °F /  12.9 °C 48.5 °F /  9.2 °C 29.74 in /  1007 hPa SW 4.9 mph /  7.9 km/h 9.2 mph /  14.8 km/h 78 % 0.01 in /  0.25 mm
13:53 55.3 °F /  12.9 °C 48.9 °F /  9.4 °C 29.73 in /  1006.7 hPa WSW 3.9 mph /  6.3 km/h 4.6 mph /  7.4 km/h 79 % 0.01 in /  0.25 mm
13:58 55.3 °F /  12.9 °C 48.6 °F /  9.2 °C 29.73 in /  1006.7 hPa SW 3.3 mph /  5.3 km/h 6.9 mph /  11.1 km/h 78 % 0.00 in /  0 mm
14:03 55.4 °F /  13 °C 48.0 °F /  8.9 °C 29.73 in /  1006.7 hPa SW 3.5 mph /  5.6 km/h 9.2 mph /  14.8 km/h 76 % 0.00 in /  0 mm
14:08 55.5 °F /  13.1 °C 47.7 °F /  8.7 °C 29.73 in /  1006.7 hPa WSW 6.9 mph /  11.1 km/h 11.5 mph /  18.5 km/h 75 % 0.00 in /  0 mm
14:13 55.6 °F /  13.1 °C 47.1 °F /  8.4 °C 29.72 in /  1006.3 hPa SW 6.1 mph /  9.8 km/h 16.1 mph /  25.9 km/h 73 % 0.00 in /  0 mm
14:18 55.5 °F /  13.1 °C 47.0 °F /  8.3 °C 29.72 in /  1006.3 hPa WNW 4.9 mph /  7.9 km/h 8.1 mph /  13 km/h 73 % 0.00 in /  0 mm
14:23 55.5 °F /  13.1 °C 45.9 °F /  7.7 °C 29.72 in /  1006.3 hPa SSW 5.1 mph /  8.2 km/h 6.0 mph /  9.7 km/h 70 % 0.00 in /  0 mm
14:28 55.4 °F /  13 °C 45.0 °F /  7.2 °C 29.72 in /  1006.3 hPa SW 6.4 mph /  10.3 km/h 9.2 mph /  14.8 km/h 68 % 0.00 in /  0 mm
14:33 55.4 °F /  13 °C 45.0 °F /  7.2 °C 29.73 in /  1006.7 hPa SW 4.8 mph /  7.7 km/h 11.5 mph /  18.5 km/h 68 % 0.00 in /  0 mm
14:38 55.3 °F /  12.9 °C 44.5 °F /  6.9 °C 29.73 in /  1006.7 hPa West 6.6 mph /  10.6 km/h 11.5 mph /  18.5 km/h 67 % 0.00 in /  0 mm
14:43 55.2 °F /  12.9 °C 44.0 °F /  6.7 °C 29.73 in /  1006.7 hPa SW 3.0 mph /  4.8 km/h 10.4 mph /  16.7 km/h 66 % 0.00 in /  0 mm
14:48 55.1 °F /  12.8 °C 44.3 °F /  6.8 °C 29.73 in /  1006.7 hPa SW 5.9 mph /  9.5 km/h 9.0 mph /  14.5 km/h 67 % 0.00 in /  0 mm
14:58 55.1 °F /  12.8 °C 44.7 °F /  7.1 °C 29.73 in /  1006.7 hPa West 3.4 mph /  5.5 km/h 3.5 mph /  5.6 km/h 68 % 0.00 in /  0 mm
15:03 55.1 °F /  12.8 °C 45.5 °F /  7.5 °C 29.73 in /  1006.7 hPa West 2.5 mph /  4 km/h 4.6 mph /  7.4 km/h 70 % 0.00 in /  0 mm
15:09 55.0 °F /  12.8 °C 45.4 °F /  7.4 °C 29.73 in /  1006.7 hPa SSW 6.4 mph /  10.3 km/h 8.0 mph /  12.9 km/h 70 % 0.00 in /  0 mm
15:14 54.8 °F /  12.7 °C 44.4 °F /  6.9 °C 29.73 in /  1006.7 hPa SSW 6.4 mph /  10.3 km/h 18.4 mph /  29.6 km/h 68 % 0.00 in /  0 mm
15:19 54.7 °F /  12.6 °C 44.3 °F /  6.8 °C 29.74 in /  1007 hPa SW 8.0 mph /  12.9 km/h 17.3 mph /  27.8 km/h 68 % 0.00 in /  0 mm
15:24 54.5 °F /  12.5 °C 43.8 °F /  6.6 °C 29.74 in /  1007 hPa SW 7.7 mph /  12.4 km/h 15.0 mph /  24.1 km/h 67 % 0.00 in /  0 mm
15:29 54.4 °F /  12.4 °C 44.1 °F /  6.7 °C 29.75 in /  1007.3 hPa SW 8.0 mph /  12.9 km/h 19.6 mph /  31.5 km/h 68 % 0.00 in /  0 mm
15:34 54.2 °F /  12.3 °C 43.1 °F /  6.2 °C 29.75 in /  1007.3 hPa SW 8.8 mph /  14.2 km/h 16.1 mph /  25.9 km/h 66 % 0.00 in /  0 mm
15:39 53.9 °F /  12.2 °C 42.8 °F /  6 °C 29.75 in /  1007.3 hPa SW 6.6 mph /  10.6 km/h 14.0 mph /  22.5 km/h 66 % 0.00 in /  0 mm
15:44 53.7 °F /  12.1 °C 42.6 °F /  5.9 °C 29.75 in /  1007.3 hPa WSW 7.8 mph /  12.6 km/h 15.0 mph /  24.1 km/h 66 % 0.00 in /  0 mm
15:49 53.5 °F /  11.9 °C 42.8 °F /  6 °C 29.75 in /  1007.3 hPa West 4.1 mph /  6.6 km/h 11.5 mph /  18.5 km/h 67 % 0.00 in /  0 mm
15:54 53.2 °F /  11.8 °C 42.1 °F /  5.6 °C 29.75 in /  1007.3 hPa NW 5.7 mph /  9.2 km/h 13.8 mph /  22.2 km/h 66 % 0.00 in /  0 mm
15:59 53.0 °F /  11.7 °C 41.9 °F /  5.5 °C 29.75 in /  1007.3 hPa South 6.4 mph /  10.3 km/h 11.5 mph /  18.5 km/h 66 % 0.00 in /  0 mm
16:04 52.8 °F /  11.6 °C 41.4 °F /  5.2 °C 29.75 in /  1007.3 hPa West 3.3 mph /  5.3 km/h 11.5 mph /  18.5 km/h 65 % 0.00 in /  0 mm
16:08 52.7 °F /  11.5 °C 41.3 °F /  5.2 °C 29.75 in /  1007.3 hPa WSW 5.3 mph /  8.5 km/h 11.5 mph /  18.5 km/h 65 % 0.00 in /  0 mm
16:13 52.6 °F /  11.4 °C 41.2 °F /  5.1 °C 29.75 in /  1007.3 hPa SW 8.4 mph /  13.5 km/h 15.0 mph /  24.1 km/h 65 % 0.00 in /  0 mm
16:18 52.5 °F /  11.4 °C 41.1 °F /  5.1 °C 29.76 in /  1007.7 hPa WSW 8.9 mph /  14.3 km/h 13.8 mph /  22.2 km/h 65 % 0.00 in /  0 mm
16:23 52.4 °F /  11.3 °C 41.4 °F /  5.2 °C 29.76 in /  1007.7 hPa WNW 5.1 mph /  8.2 km/h 10.0 mph /  16.1 km/h 66 % 0.00 in /  0 mm
16:28 52.3 °F /  11.3 °C 41.3 °F /  5.2 °C 29.76 in /  1007.7 hPa NW 4.5 mph /  7.2 km/h 11.5 mph /  18.5 km/h 66 % 0.00 in /  0 mm
16:33 52.2 °F /  11.2 °C 41.2 °F /  5.1 °C 29.77 in /  1008 hPa WSW 6.1 mph /  9.8 km/h 15.0 mph /  24.1 km/h 66 % 0.00 in /  0 mm
16:38 52.1 °F /  11.2 °C 41.5 °F /  5.3 °C 29.77 in /  1008 hPa WSW 7.6 mph /  12.2 km/h 15.0 mph /  24.1 km/h 67 % 0.00 in /  0 mm
16:43 51.9 °F /  11.1 °C 40.9 °F /  4.9 °C 29.78 in /  1008.4 hPa West 9.9 mph /  15.9 km/h 12.7 mph /  20.4 km/h 66 % 0.00 in /  0 mm
16:48 51.7 °F /  10.9 °C 40.7 °F /  4.8 °C 29.78 in /  1008.4 hPa WSW 13.3 mph /  21.4 km/h 21.9 mph /  35.2 km/h 66 % 0.00 in /  0 mm
16:53 51.4 °F /  10.8 °C 40.4 °F /  4.7 °C 29.79 in /  1008.7 hPa West 6.9 mph /  11.1 km/h 19.6 mph /  31.5 km/h 66 % 0.00 in /  0 mm
16:58 51.2 °F /  10.7 °C 40.2 °F /  4.6 °C 29.79 in /  1008.7 hPa WSW 8.9 mph /  14.3 km/h 13.8 mph /  22.2 km/h 66 % 0.00 in /  0 mm
17:03 50.9 °F /  10.5 °C 40.3 °F /  4.6 °C 29.79 in /  1008.7 hPa WNW 5.9 mph /  9.5 km/h 12.7 mph /  20.4 km/h 67 % 0.00 in /  0 mm
17:08 50.6 °F /  10.3 °C 39.3 °F /  4.1 °C 29.80 in /  1009 hPa WNW 8.4 mph /  13.5 km/h 19.6 mph /  31.5 km/h 65 % 0.00 in /  0 mm
17:13 50.4 °F /  10.2 °C 39.1 °F /  3.9 °C 29.80 in /  1009 hPa West 9.4 mph /  15.1 km/h 17.3 mph /  27.8 km/h 65 % 0.00 in /  0 mm
17:18 50.2 °F /  10.1 °C 39.3 °F /  4.1 °C 29.80 in /  1009 hPa West 9.4 mph /  15.1 km/h 11.0 mph /  17.7 km/h 66 % 0.00 in /  0 mm
17:24 50.1 °F /  10.1 °C 39.6 °F /  4.2 °C 29.80 in /  1009 hPa WSW 8.6 mph /  13.8 km/h 17.3 mph /  27.8 km/h 67 % 0.00 in /  0 mm
17:28 50.0 °F /  10 °C 39.1 °F /  3.9 °C 29.80 in /  1009 hPa NW 7.4 mph /  11.9 km/h 11.5 mph /  18.5 km/h 66 % 0.00 in /  0 mm
17:33 49.9 °F /  9.9 °C 39.0 °F /  3.9 °C 29.80 in /  1009 hPa North 6.9 mph /  11.1 km/h 18.4 mph /  29.6 km/h 66 % 0.00 in /  0 mm
17:38 49.8 °F /  9.9 °C 39.7 °F /  4.3 °C 29.80 in /  1009 hPa West 7.9 mph /  12.7 km/h 14.0 mph /  22.5 km/h 68 % 0.00 in /  0 mm
17:43 49.6 °F /  9.8 °C 39.5 °F /  4.2 °C 29.81 in /  1009.4 hPa WNW 4.7 mph /  7.6 km/h 9.2 mph /  14.8 km/h 68 % 0.00 in /  0 mm
17:48 49.5 °F /  9.7 °C 39.4 °F /  4.1 °C 29.81 in /  1009.4 hPa WNW 6.4 mph /  10.3 km/h 12.7 mph /  20.4 km/h 68 % 0.00 in /  0 mm
17:53 49.4 °F /  9.7 °C 39.7 °F /  4.3 °C 29.81 in /  1009.4 hPa WSW 7.8 mph /  12.6 km/h 13.0 mph /  20.9 km/h 69 % 0.00 in /  0 mm
17:58 49.3 °F /  9.6 °C 39.6 °F /  4.2 °C 29.81 in /  1009.4 hPa WNW 8.9 mph /  14.3 km/h 11.5 mph /  18.5 km/h 69 % 0.00 in /  0 mm
18:03 49.3 °F /  9.6 °C 39.6 °F /  4.2 °C 29.81 in /  1009.4 hPa WNW 3.2 mph /  5.1 km/h 5.8 mph /  9.3 km/h 69 % 0.00 in /  0 mm
18:08 49.2 °F /  9.6 °C 39.8 °F /  4.3 °C 29.81 in /  1009.4 hPa West 2.0 mph /  3.2 km/h 5.8 mph /  9.3 km/h 70 % 0.00 in /  0 mm
18:14 49.2 °F /  9.6 °C 39.8 °F /  4.3 °C 29.81 in /  1009.4 hPa West 6.7 mph /  10.8 km/h 13.8 mph /  22.2 km/h 70 % 0.00 in /  0 mm
18:19 49.0 °F /  9.4 °C 39.3 °F /  4.1 °C 29.81 in /  1009.4 hPa West 5.8 mph /  9.3 km/h 10.4 mph /  16.7 km/h 69 % 0.00 in /  0 mm
18:24 49.0 °F /  9.4 °C 39.3 °F /  4.1 °C 29.82 in /  1009.7 hPa WNW 5.5 mph /  8.9 km/h 9.2 mph /  14.8 km/h 69 % 0.00 in /  0 mm
18:29 48.9 °F /  9.4 °C 39.2 °F /  4 °C 29.82 in /  1009.7 hPa West 3.2 mph /  5.1 km/h 10.4 mph /  16.7 km/h 69 % 0.00 in /  0 mm
18:34 48.8 °F /  9.3 °C 39.1 °F /  3.9 °C 29.82 in /  1009.7 hPa West 9.4 mph /  15.1 km/h 22.0 mph /  35.4 km/h 69 % 0.00 in /  0 mm
18:39 48.8 °F /  9.3 °C 38.7 °F /  3.7 °C 29.82 in /  1009.7 hPa WSW 6.1 mph /  9.8 km/h 10.4 mph /  16.7 km/h 68 % 0.00 in /  0 mm
18:44 48.8 °F /  9.3 °C 39.1 °F /  3.9 °C 29.82 in /  1009.7 hPa West 4.4 mph /  7.1 km/h 10.4 mph /  16.7 km/h 69 % 0.00 in /  0 mm
18:49 48.7 °F /  9.3 °C 39.0 °F /  3.9 °C 29.82 in /  1009.7 hPa WNW 8.0 mph /  12.9 km/h 17.0 mph /  27.4 km/h 69 % 0.00 in /  0 mm
18:54 48.7 °F /  9.3 °C 39.0 °F /  3.9 °C 29.82 in /  1009.7 hPa SW 6.9 mph /  11.1 km/h 11.5 mph /  18.5 km/h 69 % 0.00 in /  0 mm
18:59 48.6 °F /  9.2 °C 38.9 °F /  3.8 °C 29.82 in /  1009.7 hPa West 6.7 mph /  10.8 km/h 11.5 mph /  18.5 km/h 69 % 0.00 in /  0 mm
19:04 48.6 °F /  9.2 °C 38.5 °F /  3.6 °C 29.83 in /  1010 hPa West 5.9 mph /  9.5 km/h 9.2 mph /  14.8 km/h 68 % 0.00 in /  0 mm
19:09 48.6 °F /  9.2 °C 38.5 °F /  3.6 °C 29.83 in /  1010 hPa West 5.9 mph /  9.5 km/h 10.4 mph /  16.7 km/h 68 % 0.00 in /  0 mm
19:14 48.6 °F /  9.2 °C 38.5 °F /  3.6 °C 29.83 in /  1010 hPa WNW 2.2 mph /  3.5 km/h 7.0 mph /  11.3 km/h 68 % 0.00 in /  0 mm
19:19 48.6 °F /  9.2 °C 38.5 °F /  3.6 °C 29.83 in /  1010 hPa WSW 4.8 mph /  7.7 km/h 9.2 mph /  14.8 km/h 68 % 0.00 in /  0 mm
19:24 48.6 °F /  9.2 °C 38.5 °F /  3.6 °C 29.83 in /  1010 hPa WNW 4.8 mph /  7.7 km/h 11.5 mph /  18.5 km/h 68 % 0.00 in /  0 mm
19:29 48.6 °F /  9.2 °C 38.5 °F /  3.6 °C 29.84 in /  1010.4 hPa WSW 5.4 mph /  8.7 km/h 8.1 mph /  13 km/h 68 % 0.00 in /  0 mm
19:34 48.6 °F /  9.2 °C 38.5 °F /  3.6 °C 29.83 in /  1010 hPa NW 7.1 mph /  11.4 km/h 12.7 mph /  20.4 km/h 68 % 0.00 in /  0 mm
19:39 48.6 °F /  9.2 °C 38.5 °F /  3.6 °C 29.83 in /  1010 hPa West 7.3 mph /  11.7 km/h 14.0 mph /  22.5 km/h 68 % 0.00 in /  0 mm
19:44 48.6 °F /  9.2 °C 38.5 °F /  3.6 °C 29.84 in /  1010.4 hPa WSW 6.4 mph /  10.3 km/h 12.7 mph /  20.4 km/h 68 % 0.00 in /  0 mm
19:49 48.6 °F /  9.2 °C 38.5 °F /  3.6 °C 29.87 in /  1011.4 hPa WNW 4.4 mph /  7.1 km/h 11.5 mph /  18.5 km/h 68 % 0.00 in /  0 mm
19:54 48.6 °F /  9.2 °C 38.1 °F /  3.4 °C 29.87 in /  1011.4 hPa WNW 8.9 mph /  14.3 km/h 19.6 mph /  31.5 km/h 67 % 0.00 in /  0 mm
19:59 48.5 °F /  9.2 °C 38.4 °F /  3.6 °C 29.84 in /  1010.4 hPa WNW 9.7 mph /  15.6 km/h 10.4 mph /  16.7 km/h 68 % 0.00 in /  0 mm
20:00 48.5 °F /  9.2 °C 38.4 °F /  3.6 °C 29.84 in /  1010.4 hPa WNW 9.7 mph /  15.6 km/h 10.4 mph /  16.7 km/h 68 % 0.00 in /  0 mm
20:05 48.5 °F /  9.2 °C 38.0 °F /  3.3 °C 29.83 in /  1010 hPa WSW 8.2 mph /  13.2 km/h 15.0 mph /  24.1 km/h 67 % 0.00 in /  0 mm
20:10 48.5 °F /  9.2 °C 38.0 °F /  3.3 °C 29.83 in /  1010 hPa WSW 3.0 mph /  4.8 km/h 10.4 mph /  16.7 km/h 67 % 0.00 in /  0 mm
20:15 48.5 °F /  9.2 °C 38.4 °F /  3.6 °C 29.84 in /  1010.4 hPa WNW 7.4 mph /  11.9 km/h 10.4 mph /  16.7 km/h 68 % 0.00 in /  0 mm
20:20 48.4 °F /  9.1 °C 37.9 °F /  3.3 °C 29.83 in /  1010 hPa WSW 7.3 mph /  11.7 km/h 13.0 mph /  20.9 km/h 67 % 0.00 in /  0 mm
20:25 48.4 °F /  9.1 °C 37.9 °F /  3.3 °C 29.84 in /  1010.4 hPa West 6.3 mph /  10.1 km/h 9.0 mph /  14.5 km/h 67 % 0.00 in /  0 mm
20:30 48.3 °F /  9.1 °C 38.2 °F /  3.4 °C 29.84 in /  1010.4 hPa WSW 3.5 mph /  5.6 km/h 9.2 mph /  14.8 km/h 68 % 0.00 in /  0 mm
20:35 48.3 °F /  9.1 °C 38.2 °F /  3.4 °C 29.84 in /  1010.4 hPa NW 6.9 mph /  11.1 km/h 11.5 mph /  18.5 km/h 68 % 0.00 in /  0 mm
20:40 48.2 °F /  9 °C 37.8 °F /  3.2 °C 29.84 in /  1010.4 hPa West 4.2 mph /  6.8 km/h 10.4 mph /  16.7 km/h 67 % 0.00 in /  0 mm
20:45 48.1 °F /  8.9 °C 38.0 °F /  3.3 °C 29.84 in /  1010.4 hPa West 7.2 mph /  11.6 km/h 15.0 mph /  24.1 km/h 68 % 0.00 in /  0 mm
20:50 48.1 °F /  8.9 °C 38.0 °F /  3.3 °C 29.84 in /  1010.4 hPa SW 6.8 mph /  10.9 km/h 15.0 mph /  24.1 km/h 68 % 0.00 in /  0 mm
20:55 48.0 °F /  8.9 °C 37.9 °F /  3.3 °C 29.84 in /  1010.4 hPa West 7.2 mph /  11.6 km/h 13.8 mph /  22.2 km/h 68 % 0.00 in /  0 mm
21:00 47.9 °F /  8.8 °C 37.8 °F /  3.2 °C 29.84 in /  1010.4 hPa SW 7.6 mph /  12.2 km/h 11.5 mph /  18.5 km/h 68 % 0.00 in /  0 mm
21:05 47.8 °F /  8.8 °C 38.1 °F /  3.4 °C 29.85 in /  1010.7 hPa WNW 5.3 mph /  8.5 km/h 11.5 mph /  18.5 km/h 69 % 0.00 in /  0 mm
21:10 47.8 °F /  8.8 °C 38.1 °F /  3.4 °C 29.85 in /  1010.7 hPa WSW 6.9 mph /  11.1 km/h 12.7 mph /  20.4 km/h 69 % 0.00 in /  0 mm
21:15 47.7 °F /  8.7 °C 38.0 °F /  3.3 °C 29.85 in /  1010.7 hPa West 8.2 mph /  13.2 km/h 13.8 mph /  22.2 km/h 69 % 0.00 in /  0 mm
21:20 47.7 °F /  8.7 °C 38.0 °F /  3.3 °C 29.85 in /  1010.7 hPa West 4.1 mph /  6.6 km/h 10.4 mph /  16.7 km/h 69 % 0.00 in /  0 mm
21:25 47.7 °F /  8.7 °C 38.4 °F /  3.6 °C 29.85 in /  1010.7 hPa WSW 6.1 mph /  9.8 km/h 14.0 mph /  22.5 km/h 70 % 0.00 in /  0 mm
21:30 47.6 °F /  8.7 °C 38.3 °F /  3.5 °C 29.86 in /  1011.1 hPa WSW 7.2 mph /  11.6 km/h 12.7 mph /  20.4 km/h 70 % 0.00 in /  0 mm
21:35 47.6 °F /  8.7 °C 38.3 °F /  3.5 °C 29.85 in /  1010.7 hPa West 6.6 mph /  10.6 km/h 10.4 mph /  16.7 km/h 70 % 0.00 in /  0 mm
21:40 47.6 °F /  8.7 °C 38.3 °F /  3.5 °C 29.86 in /  1011.1 hPa West 9.2 mph /  14.8 km/h 18.4 mph /  29.6 km/h 70 % 0.00 in /  0 mm
21:45 47.6 °F /  8.7 °C 38.3 °F /  3.5 °C 29.86 in /  1011.1 hPa WNW 5.4 mph /  8.7 km/h 9.0 mph /  14.5 km/h 70 % 0.00 in /  0 mm
21:50 47.6 °F /  8.7 °C 38.3 °F /  3.5 °C 29.85 in /  1010.7 hPa NW 4.3 mph /  6.9 km/h 11.5 mph /  18.5 km/h 70 % 0.00 in /  0 mm
21:55 47.6 °F /  8.7 °C 38.3 °F /  3.5 °C 29.85 in /  1010.7 hPa SSW 4.3 mph /  6.9 km/h 11.5 mph /  18.5 km/h 70 % 0.00 in /  0 mm
22:00 47.6 °F /  8.7 °C 38.7 °F /  3.7 °C 29.85 in /  1010.7 hPa WSW 8.9 mph /  14.3 km/h 18.4 mph /  29.6 km/h 71 % 0.00 in /  0 mm
22:05 47.6 °F /  8.7 °C 39.0 °F /  3.9 °C 29.86 in /  1011.1 hPa West 4.7 mph /  7.6 km/h 8.1 mph /  13 km/h 72 % 0.00 in /  0 mm
22:10 47.5 °F /  8.6 °C 38.9 °F /  3.8 °C 29.86 in /  1011.1 hPa West 2.5 mph /  4 km/h 5.0 mph /  8 km/h 72 % 0.00 in /  0 mm
22:19 47.2 °F /  8.4 °C 37.5 °F /  3.1 °C 29.86 in /  1011.1 hPa WSW 7.1 mph /  11.4 km/h 16.1 mph /  25.9 km/h 69 % 0.00 in /  0 mm
22:22 47.2 °F /  8.4 °C 37.9 °F /  3.3 °C 29.62 in /  1002.9 hPa West 7.4 mph /  11.9 km/h 13.8 mph /  22.2 km/h 70 % 0.00 in /  0 mm
22:23 47.2 °F /  8.4 °C 37.9 °F /  3.3 °C 29.62 in /  1002.9 hPa West 6.2 mph /  10 km/h 10.4 mph /  16.7 km/h 70 % 0.00 in /  0 mm
22:26 47.1 °F /  8.4 °C 37.8 °F /  3.2 °C 29.86 in /  1011.1 hPa NW 8.4 mph /  13.5 km/h 17.3 mph /  27.8 km/h 70 % 0.00 in /  0 mm
22:30 47.1 °F /  8.4 °C 37.4 °F /  3 °C 29.86 in /  1011.1 hPa NW 4.9 mph /  7.9 km/h 9.2 mph /  14.8 km/h 69 % 0.00 in /  0 mm
22:34 47.1 °F /  8.4 °C 37.8 °F /  3.2 °C 29.85 in /  1010.7 hPa West 2.0 mph /  3.2 km/h 4.6 mph /  7.4 km/h 70 % 0.00 in /  0 mm
22:39 47.0 °F /  8.3 °C 37.7 °F /  3.2 °C 29.86 in /  1011.1 hPa West 7.3 mph /  11.7 km/h 11.5 mph /  18.5 km/h 70 % 0.00 in /  0 mm
22:44 47.0 °F /  8.3 °C 38.1 °F /  3.4 °C 29.86 in /  1011.1 hPa West 5.5 mph /  8.9 km/h 13.0 mph /  20.9 km/h 71 % 0.00 in /  0 mm
22:49 46.8 °F /  8.2 °C 37.2 °F /  2.9 °C 29.86 in /  1011.1 hPa WSW 9.9 mph /  15.9 km/h 19.6 mph /  31.5 km/h 69 % 0.00 in /  0 mm
22:54 46.7 °F /  8.2 °C 37.4 °F /  3 °C 29.86 in /  1011.1 hPa WNW 6.4 mph /  10.3 km/h 10.4 mph /  16.7 km/h 70 % 0.00 in /  0 mm
22:59 46.7 °F /  8.2 °C 37.4 °F /  3 °C 29.86 in /  1011.1 hPa WNW 3.9 mph /  6.3 km/h 11.5 mph /  18.5 km/h 70 % 0.00 in /  0 mm
23:04 46.6 °F /  8.1 °C 37.3 °F /  2.9 °C 29.85 in /  1010.7 hPa NW 7.0 mph /  11.3 km/h 15.0 mph /  24.1 km/h 70 % 0.00 in /  0 mm
23:09 46.5 °F /  8.1 °C 37.2 °F /  2.9 °C 29.85 in /  1010.7 hPa WNW 6.7 mph /  10.8 km/h 16.0 mph /  25.7 km/h 70 % 0.00 in /  0 mm
23:14 46.4 °F /  8 °C 37.1 °F /  2.8 °C 29.85 in /  1010.7 hPa West 2.6 mph /  4.2 km/h 8.0 mph /  12.9 km/h 70 % 0.00 in /  0 mm
23:16 46.4 °F /  8 °C 37.1 °F /  2.8 °C 29.85 in /  1010.7 hPa WNW 4.9 mph /  7.9 km/h 11.0 mph /  17.7 km/h 70 % 0.00 in /  0 mm
23:26 46.2 °F /  7.9 °C 37.3 °F /  2.9 °C 29.85 in /  1010.7 hPa West 6.2 mph /  10 km/h 9.2 mph /  14.8 km/h 71 % 0.00 in /  0 mm
23:31 46.1 °F /  7.8 °C 37.2 °F /  2.9 °C 29.85 in /  1010.7 hPa West 6.0 mph /  9.7 km/h 22.0 mph /  35.4 km/h 71 % 0.00 in /  0 mm
23:36 46.0 °F /  7.8 °C 37.1 °F /  2.8 °C 29.85 in /  1010.7 hPa West 9.0 mph /  14.5 km/h 22.0 mph /  35.4 km/h 71 % 0.00 in /  0 mm
23:41 46.0 °F /  7.8 °C 37.5 °F /  3.1 °C 29.85 in /  1010.7 hPa West 6.0 mph /  9.7 km/h 18.0 mph /  29 km/h 72 % 0.00 in /  0 mm
23:46 45.9 °F /  7.7 °C 37.4 °F /  3 °C 29.86 in /  1011.1 hPa WNW 8.0 mph /  12.9 km/h 15.0 mph /  24.1 km/h 72 % 0.00 in /  0 mm
23:51 45.9 °F /  7.7 °C 37.0 °F /  2.8 °C 29.86 in /  1011.1 hPa West 8.0 mph /  12.9 km/h 21.0 mph /  33.8 km/h 71 % 0.00 in /  0 mm
23:56 45.8 °F /  7.7 °C 37.3 °F /  2.9 °C 29.86 in /  1011.1 hPa West 9.5 mph /  15.3 km/h 18.4 mph /  29.6 km/h 72 % 0.00 in /  0 mm
Crab Meadow Weather
Compliments of Weather Underground - 3 mb

Script developed by  Jim McMurry - jmcmurry@mwt.net Adapted for the template by  Wim van der Kuil - Leuven-Template.eu

Weather Terms: Warning - A warning is issued when a hazardous weather or hydrologic event is occurring, imminent or likely. A warning means weather conditions pose a threat to life or property. People in the path of the storm need to take protective action.